Time;durP1;ratioP1;P1;durP2;ratioP2;P2;SDS_P1;SDS_P2;PMS_P1;PMS_P2;Temp;Humidity;BMP_temperature;BMP_pressure;BME280_temperature;BME280_humidity;BME280_pressure;Samples;Min_cycle;Max_cycle;Signal;HPM_P1;HPM_P2
2022/06/14 00:03:04;;;;;;;4.30;2.13;;;10.50;99.90;;;;;;5110107;28;20207;-51
2022/06/14 00:05:32;;;;;;;5.57;2.37;;;10.40;99.90;;;;;;5110745;28;20268;-52
2022/06/14 00:08:01;;;;;;;5.20;2.00;;;10.30;99.90;;;;;;5109872;28;20219;-52
2022/06/14 00:10:29;;;;;;;6.37;2.47;;;10.20;99.90;;;;;;5110549;28;20200;-52
2022/06/14 00:12:57;;;;;;;5.87;2.33;;;10.20;99.90;;;;;;5110385;28;20239;-51
2022/06/14 00:15:25;;;;;;;5.07;2.30;;;10.20;99.90;;;;;;5110363;28;20557;-51
2022/06/14 00:17:54;;;;;;;4.83;2.30;;;10.10;99.90;;;;;;5103176;28;20208;-52
2022/06/14 00:20:22;;;;;;;5.40;2.23;;;10.10;99.90;;;;;;5104693;28;20229;-52
2022/06/14 00:22:50;;;;;;;4.20;2.33;;;10.00;99.90;;;;;;5102502;28;20203;-51
2022/06/14 00:25:28;;;;;;;4.00;2.30;;;9.90;99.90;;;;;;5109520;28;20257;-52
2022/06/14 00:27:56;;;;;;;4.03;2.20;;;9.90;99.90;;;;;;5110148;28;20246;-52
2022/06/14 00:30:25;;;;;;;7.33;2.27;;;9.90;99.90;;;;;;5109149;28;20203;-52
2022/06/14 00:32:53;;;;;;;4.17;2.23;;;9.90;99.90;;;;;;5109747;28;20276;-52
2022/06/14 00:35:21;;;;;;;6.97;2.50;;;9.90;99.90;;;;;;5109861;28;20949;-52
2022/06/14 00:37:49;;;;;;;3.40;2.50;;;9.80;99.90;;;;;;5109226;28;20204;-50
2022/06/14 00:40:22;;;;;;;5.57;2.50;;;9.70;99.90;;;;;;5108620;28;20207;-52
2022/06/14 00:42:51;;;;;;;5.37;2.60;;;9.70;99.90;;;;;;5109075;28;20230;-52
2022/06/14 00:45:57;;;;;;;4.30;2.20;;;9.70;99.90;;;;;;5110011;28;20282;-51
2022/06/14 00:48:29;;;;;;;3.40;2.10;;;9.70;99.90;;;;;;5094205;28;20578;-52
2022/06/14 00:51:04;;;;;;;5.20;2.30;;;9.70;99.90;;;;;;5109673;28;20261;-52
2022/06/14 00:53:39;;;;;;;4.73;2.43;;;9.70;99.90;;;;;;5108776;28;20210;-52
2022/06/14 00:56:16;;;;;;;4.20;2.17;;;9.70;99.90;;;;;;5105063;28;20744;-52
2022/06/14 00:58:51;;;;;;;7.03;2.80;;;9.70;99.90;;;;;;5100972;28;20252;-51
2022/06/14 01:01:22;;;;;;;4.97;2.47;;;9.60;99.90;;;;;;5109845;28;20215;-52
2022/06/14 01:03:56;;;;;;;8.30;2.70;;;9.60;99.90;;;;;;5108628;28;20690;-52
2022/06/14 01:06:30;;;;;;;7.83;2.50;;;9.60;99.90;;;;;;5109532;28;20228;-51
2022/06/14 01:09:04;;;;;;;5.97;2.60;;;9.70;99.90;;;;;;5108734;28;20676;-51
2022/06/14 01:11:36;;;;;;;3.97;2.60;;;9.60;99.90;;;;;;5109396;28;20244;-51
2022/06/14 01:14:08;;;;;;;5.27;2.60;;;9.60;99.90;;;;;;5109346;28;20256;-51
2022/06/14 01:16:37;;;;;;;8.30;2.57;;;9.60;99.90;;;;;;5108732;28;20263;-51
2022/06/14 01:19:10;;;;;;;5.07;2.50;;;9.50;99.90;;;;;;5104232;28;20265;-54
2022/06/14 01:21:38;;;;;;;5.37;3.00;;;9.50;99.90;;;;;;5104392;28;20252;-51
2022/06/14 01:24:08;;;;;;;7.17;2.73;;;9.40;99.90;;;;;;5100004;28;20216;-52
2022/06/14 01:26:36;;;;;;;6.87;2.30;;;9.40;99.90;;;;;;5108537;28;20232;-52
2022/06/14 01:29:06;;;;;;;5.87;2.50;;;9.40;99.90;;;;;;5109315;28;20254;-52
2022/06/14 01:31:34;;;;;;;7.43;2.80;;;9.40;99.90;;;;;;5109328;28;20233;-51
2022/06/14 01:34:07;;;;;;;8.53;2.90;;;9.40;99.90;;;;;;5109434;28;20908;-52
2022/06/14 01:36:39;;;;;;;3.23;2.50;;;9.40;99.90;;;;;;5109121;28;20281;-51
2022/06/14 01:39:11;;;;;;;5.67;2.60;;;9.40;99.90;;;;;;5109391;28;20288;-51
2022/06/14 01:41:55;;;;;;;4.60;2.60;;;9.40;99.90;;;;;;5096552;28;20763;-52
2022/06/14 01:44:38;;;;;;;4.47;2.70;;;9.40;99.90;;;;;;5109311;28;20257;-52
2022/06/14 01:47:14;;;;;;;3.53;2.40;;;9.30;99.90;;;;;;5107013;28;20279;-51
2022/06/14 01:52:49;;;;;;;6.83;3.30;;;9.30;99.90;;;;;;5097777;28;20193;-52
2022/06/14 01:55:23;;;;;;;6.43;2.67;;;9.40;99.90;;;;;;5111064;28;20776;-51
2022/06/14 01:57:58;;;;;;;5.23;3.00;;;9.30;99.90;;;;;;5113330;28;20199;-52
2022/06/14 02:00:30;;;;;;;5.33;2.80;;;9.30;99.90;;;;;;5109609;28;20252;-51
2022/06/14 02:05:55;;;;;;;5.63;2.90;;;9.30;99.90;;;;;;5112042;28;20272;-52
2022/06/14 02:08:26;;;;;;;5.20;2.83;;;9.20;99.90;;;;;;5112005;28;20231;-52
2022/06/14 02:11:03;;;;;;;8.27;2.60;;;9.20;99.90;;;;;;5112260;28;20238;-52
2022/06/14 02:13:38;;;;;;;4.97;2.70;;;9.20;99.90;;;;;;5112259;28;20196;-52
2022/06/14 02:16:13;;;;;;;6.87;3.03;;;9.20;99.90;;;;;;5111797;28;20236;-52
2022/06/14 02:18:46;;;;;;;5.80;3.00;;;9.10;99.90;;;;;;5112351;28;20206;-52
2022/06/14 02:21:19;;;;;;;8.43;3.10;;;9.10;99.90;;;;;;5111508;28;20257;-51
2022/06/14 02:23:49;;;;;;;6.37;3.40;;;9.10;99.90;;;;;;5099376;28;20207;-52
2022/06/14 02:26:26;;;;;;;7.47;2.83;;;9.10;99.90;;;;;;5112115;28;20227;-51
2022/06/14 02:28:59;;;;;;;6.47;3.23;;;9.10;99.90;;;;;;5111660;28;20279;-51
2022/06/14 02:31:32;;;;;;;5.20;3.03;;;9.10;99.90;;;;;;5111890;28;20242;-52
2022/06/14 02:34:05;;;;;;;6.53;3.43;;;9.00;99.90;;;;;;5111033;28;20215;-51
2022/06/14 02:36:36;;;;;;;7.77;3.33;;;9.00;99.90;;;;;;5111646;28;20239;-51
2022/06/14 02:39:15;;;;;;;6.97;3.20;;;9.00;99.90;;;;;;5111855;28;20269;-51
2022/06/14 02:41:49;;;;;;;6.53;3.20;;;9.00;99.90;;;;;;5109995;28;20212;-52
2022/06/14 02:44:24;;;;;;;6.03;2.97;;;9.00;99.90;;;;;;5097707;28;20344;-52
2022/06/14 02:46:55;;;;;;;5.53;3.17;;;8.90;99.90;;;;;;5110296;28;20226;-52
2022/06/14 02:49:29;;;;;;;4.83;3.03;;;8.90;99.90;;;;;;5110527;28;20264;-52
2022/06/14 02:52:01;;;;;;;4.90;2.73;;;8.90;99.90;;;;;;5099008;28;20693;-52
2022/06/14 02:54:32;;;;;;;8.90;3.40;;;8.90;99.90;;;;;;5110073;28;20279;-52
2022/06/14 02:57:08;;;;;;;7.13;3.47;;;8.90;99.90;;;;;;5111399;28;20284;-52
2022/06/14 02:59:42;;;;;;;9.07;4.00;;;8.90;99.90;;;;;;5110640;28;20207;-52
2022/06/14 03:02:15;;;;;;;6.43;3.13;;;8.90;99.90;;;;;;5110827;28;20250;-52
2022/06/14 03:04:47;;;;;;;6.47;3.10;;;8.90;99.90;;;;;;5111116;28;20206;-51
2022/06/14 03:07:19;;;;;;;6.80;3.20;;;8.90;99.90;;;;;;5111051;28;20258;-51
2022/06/14 03:09:49;;;;;;;7.13;3.20;;;8.90;99.90;;;;;;5110890;28;20213;-51
2022/06/14 03:12:29;;;;;;;6.73;3.13;;;8.90;99.90;;;;;;5111370;28;20196;-52
2022/06/14 03:15:06;;;;;;;7.27;3.63;;;8.90;99.90;;;;;;5113612;28;20211;-51
2022/06/14 03:17:48;;;;;;;8.07;3.97;;;8.90;99.90;;;;;;5112758;28;20259;-52
2022/06/14 03:20:32;;;;;;;8.60;3.03;;;8.90;99.90;;;;;;5112222;28;20306;-52
2022/06/14 03:23:12;;;;;;;7.37;3.43;;;8.90;99.90;;;;;;5099748;28;20723;-51
2022/06/14 03:25:46;;;;;;;6.20;3.50;;;8.90;99.90;;;;;;5110887;28;20211;-51
2022/06/14 03:28:21;;;;;;;7.03;2.97;;;8.90;99.90;;;;;;5082816;28;20203;-51
2022/06/14 03:30:59;;;;;;;8.97;3.20;;;8.90;99.90;;;;;;5110729;28;20750;-51
2022/06/14 03:33:36;;;;;;;5.93;3.10;;;8.90;99.90;;;;;;5110919;28;20578;-52
2022/06/14 03:36:06;;;;;;;6.13;3.13;;;8.90;99.90;;;;;;5109925;28;20230;-52
2022/06/14 03:38:47;;;;;;;9.73;3.50;;;8.90;99.90;;;;;;5100846;28;20252;-51
2022/06/14 03:41:19;;;;;;;10.43;3.83;;;9.00;99.90;;;;;;5111065;28;20234;-52
2022/06/14 03:43:50;;;;;;;10.67;3.67;;;9.00;99.90;;;;;;5110811;28;20269;-52
2022/06/14 03:46:29;;;;;;;6.47;3.27;;;9.10;99.90;;;;;;5109445;28;20238;-52
2022/06/14 03:49:02;;;;;;;6.20;3.23;;;9.10;99.90;;;;;;5101274;28;20260;-52
2022/06/14 03:51:43;;;;;;;4.73;3.17;;;9.20;99.90;;;;;;5110706;28;20246;-52
2022/06/14 03:54:33;;;;;;;8.50;3.70;;;9.30;99.90;;;;;;5110704;28;20207;-52
2022/06/14 03:57:12;;;;;;;7.40;2.93;;;9.40;99.90;;;;;;5110559;28;20274;-52
2022/06/14 04:00:04;;;;;;;8.23;3.50;;;9.50;99.90;;;;;;5109368;28;20252;-52
2022/06/14 04:02:54;;;;;;;7.73;3.40;;;9.60;99.90;;;;;;5110130;28;20729;-52
2022/06/14 04:05:33;;;;;;;7.17;3.00;;;9.60;99.90;;;;;;5088762;28;20760;-52
2022/06/14 04:08:08;;;;;;;7.57;3.33;;;9.60;99.90;;;;;;5109913;28;20664;-51
2022/06/14 04:10:43;;;;;;;8.40;3.57;;;9.70;99.90;;;;;;5109728;28;20256;-52
2022/06/14 04:13:17;;;;;;;8.33;3.30;;;10.20;99.90;;;;;;5109877;28;20716;-52
2022/06/14 04:15:50;;;;;;;7.30;2.70;;;11.10;99.90;;;;;;5109695;28;20239;-52
2022/06/14 04:18:36;;;;;;;6.57;2.97;;;11.60;99.90;;;;;;5109893;28;20238;-52
2022/06/14 04:21:14;;;;;;;5.27;2.97;;;11.40;99.90;;;;;;5109570;28;20249;-51
2022/06/14 04:23:52;;;;;;;4.90;3.00;;;11.20;99.90;;;;;;5081898;28;20546;-52
2022/06/14 04:26:37;;;;;;;5.23;3.00;;;11.00;99.90;;;;;;5109430;28;20250;-51
2022/06/14 04:29:13;;;;;;;6.83;3.00;;;11.40;99.90;;;;;;5109963;28;20245;-52
2022/06/14 04:31:48;;;;;;;9.33;3.17;;;12.40;99.90;;;;;;5109769;28;20260;-52
2022/06/14 04:34:22;;;;;;;3.23;2.47;;;13.00;99.90;;;;;;5110025;28;20238;-51
2022/06/14 04:36:56;;;;;;;6.27;3.20;;;13.50;99.90;;;;;;5109394;28;20288;-52
2022/06/14 04:39:30;;;;;;;7.47;2.43;;;13.90;99.90;;;;;;5110233;28;20613;-52
2022/06/14 04:42:03;;;;;;;4.30;2.80;;;14.50;99.90;;;;;;5109173;28;20210;-52
2022/06/14 04:44:38;;;;;;;4.45;2.42;;;15.00;99.90;;;;;;5099905;28;20230;-53
2022/06/14 04:47:15;;;;;;;4.28;2.60;;;15.40;99.90;;;;;;5103927;28;20281;-52
2022/06/14 04:49:49;;;;;;;3.20;2.20;;;16.20;99.90;;;;;;5099958;28;20702;-52
2022/06/14 04:52:23;;;;;;;4.93;2.30;;;16.80;99.90;;;;;;5106594;28;20228;-52
2022/06/14 04:54:55;;;;;;;4.38;2.10;;;16.70;99.90;;;;;;5099520;28;20217;-51
2022/06/14 04:57:30;;;;;;;4.05;2.22;;;16.30;99.90;;;;;;5109827;28;20223;-52
2022/06/14 05:00:06;;;;;;;4.90;2.30;;;16.10;99.90;;;;;;5109935;28;20207;-52
2022/06/14 05:02:39;;;;;;;5.20;2.33;;;16.70;99.90;;;;;;5109236;28;20203;-52
2022/06/14 05:05:10;;;;;;;3.38;2.05;;;17.00;99.90;;;;;;5109512;28;20735;-52
2022/06/14 05:07:43;;;;;;;4.90;2.50;;;17.40;99.90;;;;;;5109747;28;20257;-52
2022/06/14 05:10:16;;;;;;;5.32;2.25;;;16.80;99.90;;;;;;5109583;28;20257;-52
2022/06/14 05:12:52;;;;;;;4.30;2.42;;;16.60;99.90;;;;;;5108972;28;20280;-52
2022/06/14 05:15:25;;;;;;;4.25;2.10;;;17.10;99.90;;;;;;5077004;28;20269;-52
2022/06/14 05:17:59;;;;;;;3.53;2.40;;;17.60;99.90;;;;;;5103038;28;20208;-52
2022/06/14 05:20:35;;;;;;;4.90;2.45;;;17.90;99.90;;;;;;5108946;28;20265;-52
2022/06/14 05:23:08;;;;;;;4.35;2.25;;;18.20;99.90;;;;;;5109322;28;20248;-52
2022/06/14 05:25:46;;;;;;;6.10;2.55;;;18.70;99.90;;;;;;5113278;28;20660;-53
2022/06/14 05:28:22;;;;;;;3.80;2.20;;;19.00;99.90;;;;;;5112290;28;20203;-53
2022/06/14 05:30:56;;;;;;;4.20;2.30;;;19.30;99.90;;;;;;5113498;28;20279;-52
2022/06/14 05:33:37;;;;;;;3.95;2.42;;;19.70;99.90;;;;;;5112381;28;20218;-52
2022/06/14 05:36:13;;;;;;;5.57;2.17;;;20.10;99.90;;;;;;5105796;28;21112;-53
2022/06/14 05:38:48;;;;;;;6.10;2.42;;;20.70;99.90;;;;;;5093450;28;20204;-53
2022/06/14 05:41:23;;;;;;;3.40;1.85;;;21.00;99.90;;;;;;5107960;28;20263;-52
2022/06/14 05:43:55;;;;;;;6.75;2.30;;;21.10;99.90;;;;;;5112101;28;20222;-52
2022/06/14 05:46:28;;;;;;;8.60;2.00;;;21.10;99.90;;;;;;5096292;28;20227;-52
2022/06/14 05:49:04;;;;;;;4.10;2.05;;;21.30;99.90;;;;;;5094874;28;20217;-52
2022/06/14 05:51:38;;;;;;;7.32;2.40;;;21.60;99.90;;;;;;5099355;28;20197;-52
2022/06/14 05:54:12;;;;;;;2.88;2.20;;;21.80;99.90;;;;;;5091079;28;20723;-53
2022/06/14 05:56:45;;;;;;;5.18;2.22;;;22.00;99.90;;;;;;5091428;28;20224;-52
2022/06/14 05:59:21;;;;;;;4.90;2.35;;;22.10;99.90;;;;;;5092759;28;20253;-52
2022/06/14 06:01:54;;;;;;;6.40;2.45;;;22.20;99.90;;;;;;5111782;28;20239;-53
2022/06/14 06:04:30;;;;;;;5.55;2.25;;;22.50;99.90;;;;;;5098232;28;20261;-53
2022/06/14 06:07:03;;;;;;;5.35;2.35;;;22.90;99.90;;;;;;5111969;28;20255;-53
2022/06/14 06:09:37;;;;;;;4.75;2.35;;;22.70;99.90;;;;;;5096172;28;20212;-52
2022/06/14 06:12:09;;;;;;;6.22;2.25;;;22.80;99.90;;;;;;5100544;28;20212;-52
2022/06/14 06:14:43;;;;;;;7.18;2.58;;;23.00;99.90;;;;;;5110964;28;20208;-52
2022/06/14 06:17:16;;;;;;;4.30;2.20;;;23.50;99.90;;;;;;5100290;28;20329;-52
2022/06/14 06:19:55;;;;;;;5.45;2.40;;;23.40;99.40;;;;;;5112062;28;20211;-53
2022/06/14 06:22:27;;;;;;;6.45;2.67;;;23.10;99.90;;;;;;5110274;28;20207;-53
2022/06/14 06:25:00;;;;;;;6.00;2.25;;;23.30;99.90;;;;;;5109064;28;20257;-52
2022/06/14 06:27:32;;;;;;;5.72;2.70;;;23.30;99.90;;;;;;5091575;28;20777;-52
2022/06/14 06:30:05;;;;;;;4.88;2.50;;;23.30;99.90;;;;;;5107552;28;20728;-53
2022/06/14 06:32:34;;;;;;;7.07;2.40;;;23.50;99.20;;;;;;5110836;28;20203;-53
2022/06/14 06:35:05;;;;;;;7.50;2.55;;;23.60;98.90;;;;;;5111688;28;20208;-53
2022/06/14 06:37:37;;;;;;;4.13;2.10;;;23.70;99.30;;;;;;5110538;28;20799;-53
2022/06/14 06:40:11;;;;;;;4.55;2.08;;;23.80;99.20;;;;;;5111121;28;20235;-53
2022/06/14 06:42:42;;;;;;;4.15;2.03;;;24.00;98.60;;;;;;5110990;28;20268;-52
2022/06/14 06:45:15;;;;;;;4.90;2.20;;;24.20;98.90;;;;;;5101472;28;20766;-52
2022/06/14 06:47:47;;;;;;;5.45;2.33;;;24.60;98.20;;;;;;5107145;28;20227;-52
2022/06/14 06:50:25;;;;;;;4.85;2.50;;;24.70;98.30;;;;;;5112217;28;20245;-53
2022/06/14 06:53:11;;;;;;;4.93;2.60;;;24.80;97.00;;;;;;5087322;28;20253;-53
2022/06/14 06:55:51;;;;;;;5.80;2.33;;;24.70;96.90;;;;;;5107058;28;20672;-52
2022/06/14 06:58:24;;;;;;;4.63;2.50;;;25.00;97.40;;;;;;5106512;28;20275;-53
2022/06/14 07:00:56;;;;;;;8.13;3.05;;;25.00;96.00;;;;;;5087567;28;20702;-53
2022/06/14 07:03:32;;;;;;;4.40;2.50;;;25.20;96.20;;;;;;5111000;28;20200;-53
2022/06/14 07:06:04;;;;;;;9.68;2.97;;;25.30;95.20;;;;;;5110064;28;20231;-53
2022/06/14 07:08:41;;;;;;;7.15;2.58;;;25.60;95.30;;;;;;5110707;28;20302;-53
2022/06/14 07:11:16;;;;;;;6.82;3.00;;;25.70;95.30;;;;;;5110304;28;20203;-53
2022/06/14 07:13:51;;;;;;;5.50;2.45;;;25.80;94.80;;;;;;5100467;28;20196;-53
2022/06/14 07:16:24;;;;;;;5.88;2.20;;;25.60;95.00;;;;;;5110947;28;20265;-53
2022/06/14 07:19:10;;;;;;;6.13;2.50;;;25.70;95.60;;;;;;5110806;28;20199;-53
2022/06/14 07:21:46;;;;;;;7.00;2.70;;;25.70;93.40;;;;;;5109813;28;20231;-53
2022/06/14 07:24:19;;;;;;;7.22;2.72;;;25.90;94.10;;;;;;5110456;28;20242;-52
2022/06/14 07:26:50;;;;;;;6.18;2.50;;;25.90;93.80;;;;;;5110774;28;20266;-53
2022/06/14 07:29:25;;;;;;;5.90;2.75;;;25.90;93.90;;;;;;5110344;28;20257;-53
2022/06/14 07:31:58;;;;;;;6.25;2.40;;;25.30;92.10;;;;;;5110262;28;20197;-53
2022/06/14 07:34:28;;;;;;;7.03;2.33;;;25.40;92.00;;;;;;5110438;28;20207;-53
2022/06/14 07:37:04;;;;;;;10.90;2.90;;;25.60;93.30;;;;;;5110275;28;20256;-53
2022/06/14 07:39:41;;;;;;;24.75;3.88;;;25.60;93.10;;;;;;5110700;28;20282;-53
2022/06/14 07:42:16;;;;;;;10.18;3.08;;;26.00;93.30;;;;;;5110411;28;20631;-52
2022/06/14 07:44:52;;;;;;;8.90;2.95;;;26.00;92.60;;;;;;5109521;28;20216;-53
2022/06/14 07:47:27;;;;;;;7.50;3.00;;;26.00;92.20;;;;;;5105062;28;20251;-53
2022/06/14 07:50:01;;;;;;;6.32;2.30;;;25.60;91.60;;;;;;5102539;28;20238;-53
2022/06/14 07:52:36;;;;;;;6.28;2.22;;;25.70;92.00;;;;;;5109994;28;20203;-53
2022/06/14 07:55:10;;;;;;;7.78;2.30;;;25.80;91.50;;;;;;5110939;28;20226;-53
2022/06/14 07:57:44;;;;;;;6.88;2.63;;;26.00;92.00;;;;;;5110001;28;20283;-53
2022/06/14 08:03:11;;;;;;;6.22;2.60;;;26.20;92.30;;;;;;5109416;28;20208;-53
2022/06/14 08:05:43;;;;;;;5.45;2.30;;;26.00;89.80;;;;;;5110270;28;20257;-52
2022/06/14 08:08:16;;;;;;;5.70;2.10;;;25.90;90.70;;;;;;5108904;28;20243;-53
2022/06/14 08:10:49;;;;;;;6.90;2.42;;;25.30;92.00;;;;;;5110495;28;20203;-52
2022/06/14 08:13:21;;;;;;;5.43;2.85;;;25.10;93.20;;;;;;5110195;28;20253;-52
2022/06/14 08:15:55;;;;;;;7.93;2.50;;;24.90;91.50;;;;;;5109345;28;20720;-52
2022/06/14 08:18:29;;;;;;;4.50;2.20;;;24.70;91.70;;;;;;5110025;28;20206;-52
2022/06/14 08:21:00;;;;;;;6.95;2.35;;;24.40;90.80;;;;;;5110086;28;20269;-52
2022/06/14 08:23:35;;;;;;;10.38;2.53;;;24.10;91.30;;;;;;5108188;28;20227;-53
2022/06/14 08:26:08;;;;;;;13.40;3.00;;;24.30;93.50;;;;;;5110081;28;20262;-52
2022/06/14 08:28:41;;;;;;;5.00;2.10;;;24.10;91.70;;;;;;5109399;28;20257;-52
2022/06/14 08:31:17;;;;;;;4.78;2.22;;;24.00;92.80;;;;;;5109802;28;20244;-52
2022/06/14 08:33:53;;;;;;;5.53;2.20;;;23.90;91.90;;;;;;5110003;28;20214;-52
2022/06/14 08:36:27;;;;;;;7.38;2.08;;;23.80;90.90;;;;;;5099253;28;20249;-52
2022/06/14 08:39:00;;;;;;;5.10;2.35;;;23.60;90.90;;;;;;5103812;28;20193;-52
2022/06/14 08:41:46;;;;;;;4.95;2.20;;;23.80;92.00;;;;;;5102332;28;20248;-52
2022/06/14 08:44:20;;;;;;;5.93;2.28;;;24.00;90.90;;;;;;5108948;28;20207;-52
2022/06/14 08:47:03;;;;;;;5.80;2.25;;;23.80;90.60;;;;;;5108635;28;20265;-52
2022/06/14 08:49:47;;;;;;;9.02;2.35;;;23.80;90.90;;;;;;5098122;28;20208;-52
2022/06/14 08:52:51;;;;;;;7.45;2.25;;;23.50;91.20;;;;;;5109502;28;20240;-52
2022/06/14 08:55:41;;;;;;;4.70;2.47;;;23.40;91.60;;;;;;5109042;28;20256;-53
2022/06/14 08:58:37;;;;;;;7.80;2.53;;;23.00;92.30;;;;;;5113927;28;20264;-52
2022/06/14 09:01:18;;;;;;;5.35;2.20;;;23.30;91.70;;;;;;5113431;28;20199;-52
2022/06/14 09:04:13;;;;;;;5.38;2.40;;;23.20;91.90;;;;;;5113507;28;20310;-52
2022/06/14 09:07:16;;;;;;;5.47;2.22;;;23.30;90.60;;;;;;5112816;28;20234;-52
2022/06/14 09:10:13;;;;;;;4.72;2.10;;;23.40;91.10;;;;;;5113325;28;20339;-51
2022/06/14 09:13:20;;;;;;;6.65;2.33;;;23.40;90.60;;;;;;5113418;28;20207;-52
2022/06/14 09:16:33;;;;;;;6.25;2.30;;;23.30;92.50;;;;;;5095173;28;20227;-51
2022/06/14 09:19:12;;;;;;;5.97;2.15;;;23.40;93.50;;;;;;5113482;28;20215;-52
2022/06/14 09:21:55;;;;;;;7.35;2.13;;;23.30;92.80;;;;;;5112366;28;20203;-52
2022/06/14 09:24:52;;;;;;;6.90;1.92;;;23.50;94.20;;;;;;5113206;28;20254;-53
2022/06/14 09:27:33;;;;;;;5.03;2.40;;;23.60;92.80;;;;;;5105017;28;20232;-52
2022/06/14 09:30:27;;;;;;;3.90;1.80;;;23.50;91.80;;;;;;5113042;28;20215;-52
2022/06/14 09:33:14;;;;;;;5.35;2.20;;;23.40;93.50;;;;;;5113527;28;20208;-52
2022/06/14 09:36:12;;;;;;;3.72;1.90;;;23.50;93.20;;;;;;5080196;28;20235;-52
2022/06/14 09:39:10;;;;;;;4.70;2.17;;;23.50;93.70;;;;;;5105898;28;20246;-52
2022/06/14 09:42:00;;;;;;;6.80;2.30;;;23.50;94.20;;;;;;5113436;28;20203;-52
2022/06/14 09:44:56;;;;;;;5.60;2.05;;;23.40;91.10;;;;;;5089722;28;20211;-53
2022/06/14 09:47:55;;;;;;;6.40;2.15;;;23.50;92.10;;;;;;5106775;28;20761;-52
2022/06/14 09:50:54;;;;;;;5.63;2.10;;;23.40;91.50;;;;;;5022257;28;20211;-52
2022/06/14 09:53:59;;;;;;;11.77;2.67;;;23.20;88.40;;;;;;5111999;28;20212;-52
2022/06/14 09:56:41;;;;;;;6.05;2.42;;;23.30;90.50;;;;;;5112717;28;20292;-52
2022/06/14 09:59:51;;;;;;;5.95;2.00;;;23.10;90.20;;;;;;5113059;28;20203;-52
2022/06/14 10:02:34;;;;;;;3.38;1.92;;;23.10;90.10;;;;;;5071167;28;20215;-52
2022/06/14 10:05:37;;;;;;;5.70;2.10;;;23.10;90.70;;;;;;5108124;28;20204;-51
2022/06/14 10:08:28;;;;;;;3.08;2.08;;;23.20;92.30;;;;;;5110619;28;20253;-53
2022/06/14 10:11:12;;;;;;;3.63;2.20;;;23.30;92.10;;;;;;5113114;28;20203;-52
2022/06/14 10:14:03;;;;;;;4.80;2.17;;;23.40;92.30;;;;;;5100682;28;20243;-52
2022/06/14 10:16:55;;;;;;;6.30;2.10;;;23.40;92.60;;;;;;5109222;28;20212;-52
2022/06/14 10:19:43;;;;;;;5.45;2.00;;;23.30;92.00;;;;;;5068503;28;20243;-52
2022/06/14 10:22:21;;;;;;;9.10;2.22;;;23.20;90.50;;;;;;5111282;28;20660;-52
2022/06/14 10:24:56;;;;;;;4.70;2.22;;;23.30;92.70;;;;;;5112173;28;20203;-52
2022/06/14 10:30:35;;;;;;;4.07;2.08;;;23.10;88.80;;;;;;5111698;28;20203;-53
2022/06/14 10:33:26;;;;;;;3.70;2.20;;;23.00;91.50;;;;;;5111970;28;20208;-52
2022/06/14 10:36:13;;;;;;;4.28;2.00;;;23.00;90.70;;;;;;5112402;28;20262;-52
2022/06/14 10:39:01;;;;;;;4.30;2.03;;;23.00;90.80;;;;;;5111323;28;20242;-52
2022/06/14 10:41:36;;;;;;;8.65;2.40;;;23.00;89.90;;;;;;5112052;28;20196;-52
2022/06/14 10:44:14;;;;;;;4.85;2.33;;;22.90;88.10;;;;;;5111633;28;20207;-52
2022/06/14 10:46:55;;;;;;;4.20;2.00;;;22.70;90.30;;;;;;5097681;28;20260;-52
2022/06/14 10:50:02;;;;;;;5.47;2.40;;;22.70;90.10;;;;;;5086602;28;20267;-52
2022/06/14 10:53:00;;;;;;;5.15;2.03;;;22.90;90.00;;;;;;5081491;28;20206;-52
2022/06/14 10:56:00;;;;;;;4.00;2.20;;;22.70;89.60;;;;;;5085240;28;20207;-52
2022/06/14 10:58:48;;;;;;;4.72;2.13;;;22.70;88.80;;;;;;5066892;28;20192;-52
2022/06/14 11:01:30;;;;;;;5.97;2.03;;;22.70;91.60;;;;;;5111660;28;20223;-52
2022/06/14 11:04:06;;;;;;;4.88;2.28;;;23.00;90.90;;;;;;5111064;28;20302;-52
2022/06/14 11:07:12;;;;;;;3.85;1.77;;;23.00;88.50;;;;;;5110934;28;20314;-52
2022/06/14 11:09:59;;;;;;;5.15;1.85;;;23.00;87.10;;;;;;5111006;28;20211;-52
2022/06/14 11:12:49;;;;;;;2.67;1.77;;;22.90;85.50;;;;;;5108572;28;20212;-52
2022/06/14 11:15:25;;;;;;;2.80;1.80;;;23.00;84.40;;;;;;5076011;28;20205;-51
2022/06/14 11:18:20;;;;;;;4.45;2.15;;;22.90;85.10;;;;;;5085180;28;20273;-52
2022/06/14 11:20:55;;;;;;;3.65;2.15;;;22.80;87.70;;;;;;5100475;28;20253;-52
2022/06/14 11:23:30;;;;;;;7.30;2.65;;;22.80;88.00;;;;;;5108206;28;20199;-52
2022/06/14 11:26:09;;;;;;;6.07;2.20;;;22.70;86.70;;;;;;5111052;28;20308;-52
2022/06/14 11:28:45;;;;;;;4.53;2.00;;;22.70;86.80;;;;;;5109979;28;20191;-52
2022/06/14 11:31:24;;;;;;;4.60;2.28;;;22.70;86.90;;;;;;5110857;28;20264;-52
2022/06/14 11:34:08;;;;;;;4.32;2.05;;;22.80;86.30;;;;;;5110444;28;20230;-52
2022/06/14 11:36:50;;;;;;;4.15;2.08;;;22.70;86.70;;;;;;5090247;28;20281;-52
2022/06/14 11:39:33;;;;;;;4.43;2.08;;;22.80;88.60;;;;;;5098322;28;20272;-52
2022/06/14 11:42:07;;;;;;;5.22;2.03;;;22.90;85.70;;;;;;5110446;28;20200;-52
2022/06/14 11:44:53;;;;;;;4.45;1.95;;;22.80;85.10;;;;;;5110965;28;20657;-52
2022/06/14 11:47:30;;;;;;;3.80;1.70;;;22.80;87.30;;;;;;5105950;28;20281;-52
2022/06/14 11:50:09;;;;;;;4.45;1.92;;;23.10;89.00;;;;;;5092421;28;20261;-52
2022/06/14 11:52:48;;;;;;;3.35;1.67;;;23.00;85.60;;;;;;5095528;28;20608;-53
2022/06/14 11:55:27;;;;;;;3.80;1.90;;;23.10;87.90;;;;;;5110420;28;20207;-53
2022/06/14 11:58:21;;;;;;;5.28;1.98;;;23.10;91.10;;;;;;5087991;28;20227;-52
2022/06/14 12:01:11;;;;;;;4.07;2.00;;;23.10;87.00;;;;;;5109978;28;20235;-53
2022/06/14 12:03:56;;;;;;;5.20;2.15;;;23.20;89.30;;;;;;5109547;28;20208;-52
2022/06/14 12:06:36;;;;;;;3.78;1.90;;;23.30;91.60;;;;;;5110556;28;20234;-52
2022/06/14 12:09:50;;;;;;;4.18;1.70;;;23.30;89.70;;;;;;5109494;28;20256;-52
2022/06/14 12:12:26;;;;;;;3.03;1.63;;;23.30;89.70;;;;;;5025020;28;20210;-53
2022/06/14 12:15:07;;;;;;;2.70;2.08;;;23.30;90.90;;;;;;5082910;28;20195;-52
2022/06/14 12:17:41;;;;;;;5.40;1.92;;;23.40;88.40;;;;;;5089306;28;20270;-52
2022/06/14 12:20:14;;;;;;;4.53;2.00;;;23.40;91.50;;;;;;5098134;28;20220;-52
2022/06/14 12:22:58;;;;;;;3.40;2.08;;;23.30;88.10;;;;;;5108454;28;20245;-52
2022/06/14 12:28:25;;;;;;;4.25;1.70;;;23.20;87.40;;;;;;5089311;28;20259;-52
2022/06/14 12:31:04;;;;;;;3.88;1.83;;;23.30;83.30;;;;;;5077257;28;20231;-52
2022/06/14 12:33:39;;;;;;;2.55;1.70;;;23.20;82.60;;;;;;5089400;28;20208;-52
2022/06/14 12:36:22;;;;;;;3.95;1.63;;;23.10;83.10;;;;;;5102495;28;20299;-52
2022/06/14 12:38:55;;;;;;;3.47;1.73;;;23.00;82.00;;;;;;5109952;28;20230;-52
2022/06/14 12:41:28;;;;;;;4.40;1.60;;;23.00;80.30;;;;;;5110452;28;20241;-52
2022/06/14 12:44:07;;;;;;;4.47;1.90;;;23.00;82.30;;;;;;5109668;28;20203;-51
2022/06/14 12:46:43;;;;;;;3.53;1.80;;;23.00;77.10;;;;;;5109401;28;20660;-52
2022/06/14 12:49:18;;;;;;;3.33;1.92;;;22.90;79.70;;;;;;5104714;28;20207;-52
2022/06/14 12:51:51;;;;;;;2.53;1.58;;;23.10;83.40;;;;;;5099726;28;20203;-52
2022/06/14 12:54:25;;;;;;;2.85;1.90;;;23.10;83.80;;;;;;5109735;28;20199;-52
2022/06/14 12:57:02;;;;;;;2.97;1.70;;;23.10;80.90;;;;;;5108344;28;20274;-52
2022/06/14 12:59:40;;;;;;;4.85;1.90;;;23.20;85.70;;;;;;5107205;28;20264;-52
2022/06/14 13:02:16;;;;;;;3.30;1.77;;;23.30;87.30;;;;;;5109293;28;20216;-52
2022/06/14 13:04:49;;;;;;;3.03;1.52;;;23.40;84.40;;;;;;5109312;28;20253;-52
2022/06/14 13:07:28;;;;;;;2.45;1.60;;;23.40;81.40;;;;;;5109670;28;20231;-52
2022/06/14 13:10:11;;;;;;;4.03;1.70;;;23.40;80.70;;;;;;5108538;28;20252;-52
2022/06/14 13:12:54;;;;;;;4.25;1.48;;;23.40;79.40;;;;;;5109531;28;20290;-52
2022/06/14 13:15:32;;;;;;;3.65;1.63;;;23.30;77.00;;;;;;5109591;28;20637;-52
2022/06/14 13:18:16;;;;;;;1.85;1.42;;;23.30;74.60;;;;;;5109281;28;20200;-52
2022/06/14 13:20:51;;;;;;;5.05;1.83;;;23.20;76.80;;;;;;5109418;28;20204;-52
2022/06/14 13:23:34;;;;;;;2.22;1.65;;;23.20;80.50;;;;;;5107580;28;20731;-52
2022/06/14 13:26:31;;;;;;;2.42;1.70;;;23.20;80.60;;;;;;5109273;28;20852;-52
2022/06/14 13:29:22;;;;;;;5.90;2.00;;;23.20;79.00;;;;;;5103053;28;20223;-52
2022/06/14 13:32:03;;;;;;;4.43;1.80;;;23.10;78.40;;;;;;5109348;28;20229;-52
2022/06/14 13:34:49;;;;;;;3.65;1.52;;;23.30;79.20;;;;;;5099365;28;20215;-51
2022/06/14 13:37:29;;;;;;;3.40;1.58;;;23.30;77.40;;;;;;5095337;28;20266;-52
2022/06/14 13:40:01;;;;;;;5.10;1.70;;;23.30;80.40;;;;;;5109687;28;20211;-51
2022/06/14 13:42:34;;;;;;;3.47;1.50;;;23.40;80.20;;;;;;5109111;28;20207;-52
2022/06/14 13:45:08;;;;;;;3.58;1.60;;;23.40;78.40;;;;;;5113059;28;21009;-52
2022/06/14 13:47:42;;;;;;;3.08;1.40;;;23.40;76.50;;;;;;5105391;28;20920;-52
2022/06/14 13:50:19;;;;;;;1.83;1.25;;;23.50;80.00;;;;;;5096751;28;20563;-53
2022/06/14 13:52:54;;;;;;;3.15;1.52;;;23.60;76.40;;;;;;5086574;28;20641;-53
2022/06/14 13:55:29;;;;;;;2.25;1.40;;;23.60;78.80;;;;;;5112883;28;20203;-52
2022/06/14 13:58:01;;;;;;;2.40;1.48;;;23.60;79.70;;;;;;5112997;28;20226;-52
2022/06/14 14:00:36;;;;;;;4.72;1.67;;;23.60;80.60;;;;;;5112968;28;20207;-53
2022/06/14 14:03:21;;;;;;;2.95;1.52;;;23.50;77.50;;;;;;5112574;28;20203;-52